createdAt,value
2023-03-23T15:59:38.813Z,98078.22
2023-03-23T16:02:06.952Z,98084.47
2023-03-23T16:04:34.051Z,98087.19
2023-03-23T16:07:01.269Z,98083.69
2023-03-23T16:09:28.108Z,98093.03
2023-03-23T16:11:54.948Z,98093.38
2023-03-23T16:14:21.725Z,98092.91
2023-03-23T16:16:52.729Z,98091.78
2023-03-23T16:19:24.077Z,98101.13
2023-03-23T16:21:50.978Z,98085.88
2023-03-23T16:24:17.808Z,98080.75
2023-03-23T16:26:44.810Z,98090.88
2023-03-23T16:29:24.454Z,98078.72
2023-03-23T16:32:01.519Z,98072.47
2023-03-23T16:34:32.883Z,98076.34
2023-03-23T16:36:59.753Z,98077.03
2023-03-23T16:39:26.515Z,98074.66
2023-03-23T16:41:53.316Z,98068.75
2023-03-23T16:44:20.603Z,98077.28
2023-03-23T16:46:47.447Z,98073.78
2023-03-23T16:49:14.175Z,98071.38
2023-03-23T16:51:42.891Z,98066.28
2023-03-23T16:54:10.648Z,98061.97
2023-03-23T16:56:38.297Z,98055.25
2023-03-23T16:59:05.274Z,98059.13
2023-03-23T17:01:32.136Z,98060.25
2023-03-23T17:03:59.173Z,98051.63
2023-03-23T17:06:26.096Z,98046.84
2023-03-23T17:08:53.326Z,98051.75
2023-03-23T17:11:20.677Z,98048.94
2023-03-23T17:13:48.623Z,98049.66
2023-03-23T17:16:15.557Z,98048.06
2023-03-23T17:18:42.385Z,98046.47
2023-03-23T17:21:09.284Z,98048.06
2023-03-23T17:23:36.411Z,98049.53
2023-03-23T17:26:04.187Z,98044.00
2023-03-23T17:28:31.088Z,98041.25
2023-03-23T17:30:58.272Z,98040.91
2023-03-23T17:33:25.220Z,98035.34
2023-03-23T17:35:52.274Z,98020.81
2023-03-23T17:38:19.611Z,98033.91
2023-03-23T17:40:46.473Z,98033.69
2023-03-23T17:43:13.710Z,98035.66
2023-03-23T17:45:46.491Z,98042.69
2023-03-23T17:48:14.379Z,98031.31
2023-03-23T17:50:41.246Z,98028.16
2023-03-23T17:53:08.109Z,98036.66
2023-03-23T17:55:34.912Z,98044.09
2023-03-23T17:58:01.713Z,98044.78
2023-03-23T18:00:29.125Z,98046.94
2023-03-23T18:02:56.939Z,98053.91
2023-03-23T18:05:24.609Z,98053.97
2023-03-23T18:07:51.611Z,98040.00
2023-03-23T18:10:18.481Z,98039.31
2023-03-23T18:12:48.385Z,98032.28
2023-03-23T18:15:15.229Z,98032.28
2023-03-23T18:17:43.928Z,98031.56
2023-03-23T18:20:11.065Z,98035.44
2023-03-23T18:22:37.893Z,98030.22
2023-03-23T18:25:05.619Z,98039.56
2023-03-23T18:27:34.159Z,98026.69
2023-03-23T18:30:02.656Z,98035.00
2023-03-23T18:32:29.536Z,98041.47
2023-03-23T18:34:56.523Z,98031.38
2023-03-23T18:37:23.443Z,98032.84
2023-03-23T18:39:50.611Z,98042.16
2023-03-23T18:42:17.661Z,98039.78
2023-03-23T18:44:48.150Z,98040.59
2023-03-23T18:47:15.399Z,98048.44
2023-03-23T18:49:42.292Z,98044.22
2023-03-23T18:52:09.329Z,98047.38
2023-03-23T18:54:38.268Z,98050.56
2023-03-23T18:57:05.283Z,98040.91
2023-03-23T18:59:34.399Z,98041.69
2023-03-23T19:02:01.557Z,98049.09
2023-03-23T19:04:31.495Z,98045.56
2023-03-23T19:07:01.775Z,98052.97
2023-03-23T19:09:30.820Z,98054.09
2023-03-23T19:11:57.728Z,98055.69
2023-03-23T19:14:24.712Z,98056.84
2023-03-23T19:16:52.483Z,98050.94
2023-03-23T19:19:20.501Z,98063.06
2023-03-23T19:21:47.763Z,98061.94
2023-03-23T19:24:14.874Z,98063.44
2023-03-23T19:26:44.834Z,98062.63
2023-03-23T19:29:26.577Z,98062.97
2023-03-23T19:31:56.697Z,98055.56
2023-03-23T19:34:25.787Z,98057.97
2023-03-23T19:36:56.185Z,98051.38
2023-03-23T19:39:26.596Z,98053.28
2023-03-23T19:41:53.642Z,98044.31
2023-03-23T19:44:20.645Z,98047.84
2023-03-23T19:46:48.156Z,98051.72
2023-03-23T19:49:15.512Z,98044.66
2023-03-23T19:51:42.475Z,98052.41
2023-03-23T19:54:09.356Z,98052.75
2023-03-23T19:56:36.738Z,98048.78
2023-03-23T19:59:05.202Z,98050.69
2023-03-23T20:01:32.822Z,98054.56
2023-03-23T20:04:01.880Z,98047.38
2023-03-23T20:06:29.952Z,98045.03
2023-03-23T20:09:00.080Z,98046.84
2023-03-23T20:11:28.772Z,98047.75
2023-03-23T20:13:56.252Z,98045.25
2023-03-23T20:16:24.802Z,98045.94
2023-03-23T20:18:53.324Z,98040.41
2023-03-23T20:21:22.691Z,98030.94
2023-03-23T20:23:54.261Z,98030.84
2023-03-23T20:26:29.660Z,98036.88
2023-03-23T20:28:57.071Z,98035.41
2023-03-23T20:34:03.106Z,98016.09
2023-03-23T20:36:40.424Z,98022.94
2023-03-23T20:39:12.365Z,98030.97
2023-03-23T20:41:40.327Z,98028.63
2023-03-23T20:44:14.375Z,98031.88
2023-03-23T20:46:47.369Z,98034.16
2023-03-23T20:49:15.653Z,98036.97
2023-03-23T20:51:44.636Z,98036.53
2023-03-23T20:54:16.279Z,98032.88
2023-03-23T20:56:46.062Z,98028.94
2023-03-23T20:59:15.501Z,98027.44
2023-03-23T21:01:43.709Z,98034.59
2023-03-23T21:04:18.114Z,98033.03
2023-03-23T21:06:48.916Z,98028.34
2023-03-23T21:09:17.429Z,98023.47
2023-03-23T21:11:46.107Z,98001.31
2023-03-23T21:14:14.036Z,98006.00
2023-03-23T21:16:41.974Z,98000.53
2023-03-23T21:19:09.724Z,97995.53
2023-03-23T21:21:36.705Z,97992.13
2023-03-23T21:24:03.887Z,97993.38
2023-03-23T21:26:30.812Z,97986.00
2023-03-23T21:29:01.063Z,97984.88
2023-03-23T21:31:31.534Z,97987.91
2023-03-23T21:33:59.363Z,97978.50
2023-03-23T21:36:27.411Z,97978.50
2023-03-23T21:38:55.657Z,97973.84
2023-03-23T21:41:24.115Z,97970.56
2023-03-23T21:43:51.842Z,97977.25
2023-03-23T21:46:18.745Z,97981.47
2023-03-23T21:48:51.567Z,97968.16
2023-03-23T21:51:26.480Z,97963.75
2023-03-23T21:53:55.003Z,97957.03
2023-03-23T21:56:25.365Z,97954.66
2023-03-23T21:58:52.423Z,97949.00
2023-03-23T22:01:20.123Z,97941.38
2023-03-23T22:03:47.260Z,97944.78
2023-03-23T22:06:18.937Z,97943.63
2023-03-23T22:08:47.520Z,97933.09
2023-03-23T22:11:19.636Z,97925.38
2023-03-23T22:13:48.845Z,97921.53
2023-03-23T22:16:18.450Z,97926.63
2023-03-23T22:18:48.728Z,97911.75
2023-03-23T22:21:17.431Z,97911.75
2023-03-23T22:23:46.143Z,97909.03
2023-03-23T22:26:15.309Z,97913.78
2023-03-23T22:28:43.715Z,97907.22
2023-03-23T22:31:18.817Z,97907.66
2023-03-23T22:33:48.435Z,97900.19
2023-03-23T22:36:17.584Z,97911.84
2023-03-23T22:38:47.565Z,97911.06
2023-03-23T22:41:23.360Z,97906.75
2023-03-23T22:43:52.068Z,97910.63
2023-03-23T22:46:19.380Z,97911.06
2023-03-23T22:48:46.844Z,97898.59
2023-03-23T22:51:16.507Z,97907.91
2023-03-23T22:53:44.572Z,97903.13
2023-03-23T22:56:12.464Z,97905.28
2023-03-23T22:58:39.678Z,97885.75
2023-03-23T23:01:15.564Z,97891.88
2023-03-23T23:03:42.600Z,97891.31
2023-03-23T23:06:13.224Z,97875.19
2023-03-23T23:08:41.249Z,97871.19
2023-03-23T23:11:11.935Z,97881.53
2023-03-23T23:13:40.942Z,97888.44
2023-03-23T23:16:09.939Z,97892.16
2023-03-23T23:18:38.452Z,97889.91
2023-03-23T23:21:11.692Z,97904.31
2023-03-23T23:23:38.683Z,97912.03
2023-03-23T23:26:07.215Z,97904.88
2023-03-23T23:28:35.516Z,97911.91
2023-03-23T23:31:02.928Z,97892.53
2023-03-23T23:33:30.136Z,97890.94
2023-03-23T23:35:57.064Z,97875.28
2023-03-23T23:38:24.053Z,97869.84
2023-03-23T23:40:51.008Z,97866.28
2023-03-23T23:43:17.983Z,97854.94
2023-03-23T23:45:44.863Z,97847.47
2023-03-23T23:48:12.535Z,97850.53
2023-03-23T23:50:39.509Z,97847.91
2023-03-23T23:53:06.386Z,97842.03
2023-03-23T23:55:33.375Z,97835.44
2023-03-23T23:58:00.543Z,97841.13
